sensor_id;sensor_type;location;lat;lon;timestamp;P1;durP1;ratioP1;P2;durP2;ratioP2
26391;SDS011;14572;43.120;1.178;2023-05-10T00:01:17;10.05;;;1.63;;
26391;SDS011;14572;43.120;1.178;2023-05-10T00:03:44;11.18;;;1.92;;
26391;SDS011;14572;43.120;1.178;2023-05-10T00:06:11;11.50;;;2.03;;
26391;SDS011;14572;43.120;1.178;2023-05-10T00:08:38;6.90;;;1.77;;
26391;SDS011;14572;43.120;1.178;2023-05-10T00:11:08;8.80;;;1.60;;
26391;SDS011;14572;43.120;1.178;2023-05-10T00:13:35;10.98;;;1.65;;
26391;SDS011;14572;43.120;1.178;2023-05-10T00:16:02;9.82;;;1.77;;
26391;SDS011;14572;43.120;1.178;2023-05-10T00:18:29;9.90;;;1.90;;
26391;SDS011;14572;43.120;1.178;2023-05-10T00:20:56;7.50;;;2.08;;
26391;SDS011;14572;43.120;1.178;2023-05-10T00:23:23;7.55;;;1.50;;
26391;SDS011;14572;43.120;1.178;2023-05-10T00:25:50;17.40;;;1.63;;
26391;SDS011;14572;43.120;1.178;2023-05-10T00:28:20;12.02;;;1.85;;
26391;SDS011;14572;43.120;1.178;2023-05-10T00:30:47;7.35;;;1.33;;
26391;SDS011;14572;43.120;1.178;2023-05-10T00:33:14;10.60;;;2.03;;
26391;SDS011;14572;43.120;1.178;2023-05-10T00:35:41;11.85;;;1.63;;
26391;SDS011;14572;43.120;1.178;2023-05-10T00:38:08;6.93;;;1.63;;
26391;SDS011;14572;43.120;1.178;2023-05-10T00:40:35;11.23;;;1.80;;
26391;SDS011;14572;43.120;1.178;2023-05-10T00:43:03;7.88;;;1.63;;
26391;SDS011;14572;43.120;1.178;2023-05-10T00:45:31;9.25;;;1.77;;
26391;SDS011;14572;43.120;1.178;2023-05-10T00:47:59;11.43;;;1.80;;
26391;SDS011;14572;43.120;1.178;2023-05-10T00:50:27;8.18;;;1.80;;
26391;SDS011;14572;43.120;1.178;2023-05-10T00:52:55;6.60;;;1.88;;
26391;SDS011;14572;43.120;1.178;2023-05-10T00:55:22;10.80;;;2.00;;
26391;SDS011;14572;43.120;1.178;2023-05-10T00:57:50;10.18;;;1.63;;
26391;SDS011;14572;43.120;1.178;2023-05-10T01:00:19;7.57;;;1.50;;
26391;SDS011;14572;43.120;1.178;2023-05-10T01:02:48;8.50;;;1.77;;
26391;SDS011;14572;43.120;1.178;2023-05-10T01:05:15;5.05;;;1.40;;
26391;SDS011;14572;43.120;1.178;2023-05-10T01:07:42;8.57;;;1.73;;
26391;SDS011;14572;43.120;1.178;2023-05-10T01:10:09;11.05;;;1.63;;
26391;SDS011;14572;43.120;1.178;2023-05-10T01:12:37;6.55;;;1.60;;
26391;SDS011;14572;43.120;1.178;2023-05-10T01:15:05;7.15;;;1.30;;
26391;SDS011;14572;43.120;1.178;2023-05-10T01:17:34;8.13;;;1.95;;
26391;SDS011;14572;43.120;1.178;2023-05-10T01:20:03;5.70;;;1.40;;
26391;SDS011;14572;43.120;1.178;2023-05-10T01:25:50;8.82;;;1.85;;
26391;SDS011;14572;43.120;1.178;2023-05-10T01:28:35;8.75;;;1.67;;
26391;SDS011;14572;43.120;1.178;2023-05-10T01:31:22;11.10;;;2.05;;
26391;SDS011;14572;43.120;1.178;2023-05-10T01:34:00;6.72;;;1.90;;
26391;SDS011;14572;43.120;1.178;2023-05-10T01:36:30;5.68;;;1.90;;
26391;SDS011;14572;43.120;1.178;2023-05-10T01:39:01;6.93;;;1.80;;
26391;SDS011;14572;43.120;1.178;2023-05-10T01:41:33;7.93;;;1.80;;
26391;SDS011;14572;43.120;1.178;2023-05-10T01:44:14;8.70;;;2.17;;
26391;SDS011;14572;43.120;1.178;2023-05-10T01:46:44;5.18;;;1.50;;
26391;SDS011;14572;43.120;1.178;2023-05-10T01:49:25;7.63;;;1.77;;
26391;SDS011;14572;43.120;1.178;2023-05-10T01:51:54;6.88;;;1.80;;
26391;SDS011;14572;43.120;1.178;2023-05-10T01:54:36;5.70;;;1.58;;
26391;SDS011;14572;43.120;1.178;2023-05-10T01:57:05;6.95;;;1.92;;
26391;SDS011;14572;43.120;1.178;2023-05-10T01:59:35;4.07;;;1.70;;
26391;SDS011;14572;43.120;1.178;2023-05-10T02:02:05;11.82;;;2.08;;
26391;SDS011;14572;43.120;1.178;2023-05-10T02:04:38;6.80;;;2.17;;
26391;SDS011;14572;43.120;1.178;2023-05-10T02:07:06;11.13;;;2.42;;
26391;SDS011;14572;43.120;1.178;2023-05-10T02:09:33;8.50;;;2.63;;
26391;SDS011;14572;43.120;1.178;2023-05-10T02:12:02;6.95;;;2.05;;
26391;SDS011;14572;43.120;1.178;2023-05-10T02:14:32;5.45;;;2.10;;
26391;SDS011;14572;43.120;1.178;2023-05-10T02:17:01;11.60;;;2.38;;
26391;SDS011;14572;43.120;1.178;2023-05-10T02:19:29;12.50;;;1.88;;
26391;SDS011;14572;43.120;1.178;2023-05-10T02:21:59;7.78;;;1.92;;
26391;SDS011;14572;43.120;1.178;2023-05-10T02:24:26;10.55;;;1.92;;
26391;SDS011;14572;43.120;1.178;2023-05-10T02:26:54;9.82;;;1.98;;
26391;SDS011;14572;43.120;1.178;2023-05-10T02:29:22;10.20;;;1.83;;
26391;SDS011;14572;43.120;1.178;2023-05-10T02:31:49;11.48;;;2.50;;
26391;SDS011;14572;43.120;1.178;2023-05-10T02:34:18;11.80;;;2.20;;
26391;SDS011;14572;43.120;1.178;2023-05-10T02:36:46;8.13;;;2.25;;
26391;SDS011;14572;43.120;1.178;2023-05-10T02:39:15;7.93;;;2.10;;
26391;SDS011;14572;43.120;1.178;2023-05-10T02:41:43;7.53;;;1.95;;
26391;SDS011;14572;43.120;1.178;2023-05-10T02:44:12;8.32;;;1.60;;
26391;SDS011;14572;43.120;1.178;2023-05-10T02:46:41;9.73;;;1.80;;
26391;SDS011;14572;43.120;1.178;2023-05-10T02:49:08;12.95;;;2.08;;
26391;SDS011;14572;43.120;1.178;2023-05-10T02:51:36;7.25;;;1.98;;
26391;SDS011;14572;43.120;1.178;2023-05-10T02:54:07;4.93;;;1.88;;
26391;SDS011;14572;43.120;1.178;2023-05-10T02:56:40;6.00;;;2.00;;
26391;SDS011;14572;43.120;1.178;2023-05-10T02:59:09;8.45;;;2.05;;
26391;SDS011;14572;43.120;1.178;2023-05-10T03:01:36;10.68;;;2.20;;
26391;SDS011;14572;43.120;1.178;2023-05-10T03:04:04;7.50;;;2.03;;
26391;SDS011;14572;43.120;1.178;2023-05-10T03:06:31;7.20;;;1.95;;
26391;SDS011;14572;43.120;1.178;2023-05-10T03:08:58;6.43;;;1.65;;
26391;SDS011;14572;43.120;1.178;2023-05-10T03:11:32;6.88;;;2.05;;
26391;SDS011;14572;43.120;1.178;2023-05-10T03:14:09;7.65;;;1.95;;
26391;SDS011;14572;43.120;1.178;2023-05-10T03:16:41;6.22;;;1.95;;
26391;SDS011;14572;43.120;1.178;2023-05-10T03:19:12;6.43;;;1.92;;
26391;SDS011;14572;43.120;1.178;2023-05-10T03:21:44;5.80;;;2.08;;
26391;SDS011;14572;43.120;1.178;2023-05-10T03:24:16;12.65;;;2.25;;
26391;SDS011;14572;43.120;1.178;2023-05-10T03:26:46;8.82;;;2.00;;
26391;SDS011;14572;43.120;1.178;2023-05-10T03:29:14;9.00;;;2.00;;
26391;SDS011;14572;43.120;1.178;2023-05-10T03:31:41;11.82;;;1.88;;
26391;SDS011;14572;43.120;1.178;2023-05-10T03:34:08;6.40;;;1.88;;
26391;SDS011;14572;43.120;1.178;2023-05-10T03:36:36;8.50;;;2.15;;
26391;SDS011;14572;43.120;1.178;2023-05-10T03:39:03;7.00;;;1.70;;
26391;SDS011;14572;43.120;1.178;2023-05-10T03:41:30;7.20;;;1.60;;
26391;SDS011;14572;43.120;1.178;2023-05-10T03:43:59;9.73;;;1.80;;
26391;SDS011;14572;43.120;1.178;2023-05-10T03:46:26;11.13;;;1.67;;
26391;SDS011;14572;43.120;1.178;2023-05-10T03:48:53;10.48;;;2.50;;
26391;SDS011;14572;43.120;1.178;2023-05-10T03:51:20;13.68;;;2.25;;
26391;SDS011;14572;43.120;1.178;2023-05-10T03:53:47;12.32;;;2.00;;
26391;SDS011;14572;43.120;1.178;2023-05-10T03:56:15;8.68;;;1.77;;
26391;SDS011;14572;43.120;1.178;2023-05-10T03:58:42;13.73;;;1.63;;
26391;SDS011;14572;43.120;1.178;2023-05-10T04:01:11;11.27;;;2.13;;
26391;SDS011;14572;43.120;1.178;2023-05-10T04:03:38;12.40;;;1.75;;
26391;SDS011;14572;43.120;1.178;2023-05-10T04:06:05;8.98;;;1.45;;
26391;SDS011;14572;43.120;1.178;2023-05-10T04:08:34;9.43;;;1.55;;
26391;SDS011;14572;43.120;1.178;2023-05-10T04:11:04;9.23;;;1.35;;
26391;SDS011;14572;43.120;1.178;2023-05-10T04:13:33;10.18;;;1.70;;
26391;SDS011;14572;43.120;1.178;2023-05-10T04:16:01;9.77;;;1.65;;
26391;SDS011;14572;43.120;1.178;2023-05-10T04:18:29;14.90;;;1.92;;
26391;SDS011;14572;43.120;1.178;2023-05-10T04:20:56;13.73;;;1.63;;
26391;SDS011;14572;43.120;1.178;2023-05-10T04:23:24;11.10;;;1.85;;
26391;SDS011;14572;43.120;1.178;2023-05-10T04:25:52;8.07;;;1.42;;
26391;SDS011;14572;43.120;1.178;2023-05-10T04:28:19;13.05;;;1.55;;
26391;SDS011;14572;43.120;1.178;2023-05-10T04:30:47;7.50;;;1.40;;
26391;SDS011;14572;43.120;1.178;2023-05-10T04:33:14;5.40;;;1.33;;
26391;SDS011;14572;43.120;1.178;2023-05-10T04:35:42;15.57;;;1.80;;
26391;SDS011;14572;43.120;1.178;2023-05-10T04:38:10;10.05;;;1.73;;
26391;SDS011;14572;43.120;1.178;2023-05-10T04:40:37;12.65;;;1.30;;
26391;SDS011;14572;43.120;1.178;2023-05-10T04:43:04;9.38;;;1.35;;
26391;SDS011;14572;43.120;1.178;2023-05-10T04:45:31;13.18;;;1.38;;
26391;SDS011;14572;43.120;1.178;2023-05-10T04:47:58;10.90;;;1.30;;
26391;SDS011;14572;43.120;1.178;2023-05-10T04:50:26;13.00;;;1.45;;
26391;SDS011;14572;43.120;1.178;2023-05-10T04:52:54;11.43;;;1.58;;
26391;SDS011;14572;43.120;1.178;2023-05-10T04:55:21;8.00;;;1.42;;
26391;SDS011;14572;43.120;1.178;2023-05-10T04:57:49;9.38;;;1.48;;
26391;SDS011;14572;43.120;1.178;2023-05-10T05:00:16;8.15;;;1.58;;
26391;SDS011;14572;43.120;1.178;2023-05-10T05:02:43;13.07;;;1.50;;
26391;SDS011;14572;43.120;1.178;2023-05-10T05:05:11;9.18;;;1.27;;
26391;SDS011;14572;43.120;1.178;2023-05-10T05:07:38;11.40;;;1.60;;
26391;SDS011;14572;43.120;1.178;2023-05-10T05:10:08;8.55;;;1.30;;
26391;SDS011;14572;43.120;1.178;2023-05-10T05:12:35;8.60;;;1.27;;
26391;SDS011;14572;43.120;1.178;2023-05-10T05:15:02;10.60;;;1.63;;
26391;SDS011;14572;43.120;1.178;2023-05-10T05:17:30;13.63;;;1.55;;
26391;SDS011;14572;43.120;1.178;2023-05-10T05:19:57;8.88;;;1.70;;
26391;SDS011;14572;43.120;1.178;2023-05-10T05:22:24;12.45;;;1.52;;
26391;SDS011;14572;43.120;1.178;2023-05-10T05:24:53;8.10;;;1.27;;
26391;SDS011;14572;43.120;1.178;2023-05-10T05:27:22;6.35;;;1.48;;
26391;SDS011;14572;43.120;1.178;2023-05-10T05:29:52;10.68;;;1.90;;
26391;SDS011;14572;43.120;1.178;2023-05-10T05:32:19;13.60;;;1.77;;
26391;SDS011;14572;43.120;1.178;2023-05-10T05:34:46;8.35;;;1.75;;
26391;SDS011;14572;43.120;1.178;2023-05-10T05:37:13;10.10;;;2.00;;
26391;SDS011;14572;43.120;1.178;2023-05-10T05:39:41;18.25;;;1.70;;
26391;SDS011;14572;43.120;1.178;2023-05-10T05:42:09;7.43;;;1.45;;
26391;SDS011;14572;43.120;1.178;2023-05-10T05:44:37;16.13;;;1.85;;
26391;SDS011;14572;43.120;1.178;2023-05-10T05:47:05;9.13;;;2.28;;
26391;SDS011;14572;43.120;1.178;2023-05-10T05:49:32;12.00;;;1.80;;
26391;SDS011;14572;43.120;1.178;2023-05-10T05:52:00;13.57;;;1.95;;
26391;SDS011;14572;43.120;1.178;2023-05-10T05:54:28;7.43;;;1.42;;
26391;SDS011;14572;43.120;1.178;2023-05-10T05:56:55;8.05;;;1.50;;
26391;SDS011;14572;43.120;1.178;2023-05-10T05:59:23;11.68;;;1.77;;
26391;SDS011;14572;43.120;1.178;2023-05-10T06:01:52;8.23;;;1.80;;
26391;SDS011;14572;43.120;1.178;2023-05-10T06:04:19;9.13;;;1.75;;
26391;SDS011;14572;43.120;1.178;2023-05-10T06:06:46;13.40;;;1.83;;
26391;SDS011;14572;43.120;1.178;2023-05-10T06:09:13;10.30;;;1.75;;
26391;SDS011;14572;43.120;1.178;2023-05-10T06:11:41;13.18;;;2.33;;
26391;SDS011;14572;43.120;1.178;2023-05-10T06:14:08;13.70;;;2.00;;
26391;SDS011;14572;43.120;1.178;2023-05-10T06:16:35;9.43;;;2.47;;
26391;SDS011;14572;43.120;1.178;2023-05-10T06:19:04;7.07;;;1.60;;
26391;SDS011;14572;43.120;1.178;2023-05-10T06:21:31;7.68;;;1.50;;
26391;SDS011;14572;43.120;1.178;2023-05-10T06:23:58;7.50;;;1.10;;
26391;SDS011;14572;43.120;1.178;2023-05-10T06:26:25;13.70;;;2.08;;
26391;SDS011;14572;43.120;1.178;2023-05-10T06:28:52;12.13;;;1.95;;
26391;SDS011;14572;43.120;1.178;2023-05-10T06:31:20;9.57;;;1.67;;
26391;SDS011;14572;43.120;1.178;2023-05-10T06:33:47;9.52;;;1.60;;
26391;SDS011;14572;43.120;1.178;2023-05-10T06:36:15;6.95;;;1.55;;
26391;SDS011;14572;43.120;1.178;2023-05-10T06:38:43;6.72;;;1.45;;
26391;SDS011;14572;43.120;1.178;2023-05-10T06:41:10;10.25;;;1.70;;
26391;SDS011;14572;43.120;1.178;2023-05-10T06:43:37;9.85;;;2.30;;
26391;SDS011;14572;43.120;1.178;2023-05-10T06:46:06;16.55;;;2.10;;
26391;SDS011;14572;43.120;1.178;2023-05-10T06:48:33;5.05;;;1.45;;
26391;SDS011;14572;43.120;1.178;2023-05-10T06:51:00;14.32;;;1.73;;
26391;SDS011;14572;43.120;1.178;2023-05-10T06:53:29;9.68;;;1.77;;
26391;SDS011;14572;43.120;1.178;2023-05-10T06:55:56;13.63;;;1.98;;
26391;SDS011;14572;43.120;1.178;2023-05-10T06:58:23;7.72;;;1.95;;
26391;SDS011;14572;43.120;1.178;2023-05-10T07:00:50;7.03;;;1.70;;
26391;SDS011;14572;43.120;1.178;2023-05-10T07:03:18;12.13;;;1.77;;
26391;SDS011;14572;43.120;1.178;2023-05-10T07:05:45;6.85;;;1.20;;
26391;SDS011;14572;43.120;1.178;2023-05-10T07:08:12;5.78;;;1.33;;
26391;SDS011;14572;43.120;1.178;2023-05-10T07:10:41;6.15;;;1.42;;
26391;SDS011;14572;43.120;1.178;2023-05-10T07:13:08;8.25;;;1.65;;
26391;SDS011;14572;43.120;1.178;2023-05-10T07:15:35;10.13;;;1.30;;
26391;SDS011;14572;43.120;1.178;2023-05-10T07:18:02;7.00;;;1.63;;
26391;SDS011;14572;43.120;1.178;2023-05-10T07:20:31;5.13;;;1.40;;
26391;SDS011;14572;43.120;1.178;2023-05-10T07:22:58;9.65;;;2.50;;
26391;SDS011;14572;43.120;1.178;2023-05-10T07:25:25;7.13;;;1.30;;
26391;SDS011;14572;43.120;1.178;2023-05-10T07:27:54;8.52;;;1.30;;
26391;SDS011;14572;43.120;1.178;2023-05-10T07:30:21;8.20;;;1.52;;
26391;SDS011;14572;43.120;1.178;2023-05-10T07:32:48;10.23;;;1.60;;
26391;SDS011;14572;43.120;1.178;2023-05-10T07:35:15;5.00;;;1.38;;
26391;SDS011;14572;43.120;1.178;2023-05-10T07:37:43;12.88;;;1.63;;
26391;SDS011;14572;43.120;1.178;2023-05-10T07:40:10;12.48;;;2.33;;
26391;SDS011;14572;43.120;1.178;2023-05-10T07:42:37;10.75;;;1.63;;
26391;SDS011;14572;43.120;1.178;2023-05-10T07:45:07;9.25;;;1.60;;
26391;SDS011;14572;43.120;1.178;2023-05-10T07:47:35;8.82;;;1.40;;
26391;SDS011;14572;43.120;1.178;2023-05-10T07:50:03;8.18;;;1.60;;
26391;SDS011;14572;43.120;1.178;2023-05-10T07:52:30;7.22;;;1.42;;
26391;SDS011;14572;43.120;1.178;2023-05-10T07:54:58;6.25;;;1.23;;
26391;SDS011;14572;43.120;1.178;2023-05-10T07:57:25;10.32;;;1.10;;
26391;SDS011;14572;43.120;1.178;2023-05-10T07:59:52;8.38;;;1.17;;
26391;SDS011;14572;43.120;1.178;2023-05-10T08:02:20;8.65;;;1.30;;
26391;SDS011;14572;43.120;1.178;2023-05-10T08:04:48;5.80;;;1.00;;
26391;SDS011;14572;43.120;1.178;2023-05-10T08:07:15;8.32;;;1.33;;
26391;SDS011;14572;43.120;1.178;2023-05-10T08:09:42;9.90;;;1.25;;
26391;SDS011;14572;43.120;1.178;2023-05-10T08:12:09;11.07;;;1.30;;
26391;SDS011;14572;43.120;1.178;2023-05-10T08:14:36;10.15;;;1.52;;
26391;SDS011;14572;43.120;1.178;2023-05-10T08:17:04;5.65;;;1.05;;
26391;SDS011;14572;43.120;1.178;2023-05-10T08:19:32;14.98;;;1.35;;
26391;SDS011;14572;43.120;1.178;2023-05-10T08:22:00;7.95;;;1.05;;
26391;SDS011;14572;43.120;1.178;2023-05-10T08:24:27;9.32;;;1.40;;
26391;SDS011;14572;43.120;1.178;2023-05-10T08:26:54;9.10;;;1.15;;
26391;SDS011;14572;43.120;1.178;2023-05-10T08:29:21;6.97;;;1.20;;
26391;SDS011;14572;43.120;1.178;2023-05-10T08:31:48;11.02;;;1.30;;
26391;SDS011;14572;43.120;1.178;2023-05-10T08:34:15;4.60;;;1.02;;
26391;SDS011;14572;43.120;1.178;2023-05-10T08:36:44;5.15;;;1.30;;
26391;SDS011;14572;43.120;1.178;2023-05-10T08:39:11;6.28;;;1.55;;
26391;SDS011;14572;43.120;1.178;2023-05-10T08:41:39;8.63;;;1.02;;
26391;SDS011;14572;43.120;1.178;2023-05-10T08:44:06;12.98;;;1.23;;
26391;SDS011;14572;43.120;1.178;2023-05-10T08:46:34;11.95;;;1.27;;
26391;SDS011;14572;43.120;1.178;2023-05-10T08:49:05;4.72;;;0.98;;
26391;SDS011;14572;43.120;1.178;2023-05-10T08:51:35;7.93;;;0.90;;
26391;SDS011;14572;43.120;1.178;2023-05-10T08:54:05;5.45;;;1.00;;
26391;SDS011;14572;43.120;1.178;2023-05-10T08:56:32;4.25;;;0.82;;
26391;SDS011;14572;43.120;1.178;2023-05-10T08:59:00;6.85;;;0.88;;
26391;SDS011;14572;43.120;1.178;2023-05-10T09:01:27;7.88;;;0.95;;
26391;SDS011;14572;43.120;1.178;2023-05-10T09:03:54;8.48;;;1.15;;
26391;SDS011;14572;43.120;1.178;2023-05-10T09:06:22;9.38;;;1.00;;
26391;SDS011;14572;43.120;1.178;2023-05-10T09:08:49;8.20;;;1.08;;
26391;SDS011;14572;43.120;1.178;2023-05-10T09:11:18;5.95;;;0.90;;
26391;SDS011;14572;43.120;1.178;2023-05-10T09:13:48;10.63;;;1.25;;
26391;SDS011;14572;43.120;1.178;2023-05-10T09:16:15;6.15;;;1.00;;
26391;SDS011;14572;43.120;1.178;2023-05-10T09:18:42;6.00;;;0.85;;
26391;SDS011;14572;43.120;1.178;2023-05-10T09:21:09;7.53;;;1.15;;
26391;SDS011;14572;43.120;1.178;2023-05-10T09:23:36;8.05;;;0.88;;
26391;SDS011;14572;43.120;1.178;2023-05-10T09:26:04;5.82;;;1.10;;
26391;SDS011;14572;43.120;1.178;2023-05-10T09:28:33;6.53;;;0.90;;
26391;SDS011;14572;43.120;1.178;2023-05-10T09:31:00;4.60;;;0.95;;
26391;SDS011;14572;43.120;1.178;2023-05-10T09:33:27;8.82;;;1.08;;
26391;SDS011;14572;43.120;1.178;2023-05-10T09:35:55;6.30;;;1.25;;
26391;SDS011;14572;43.120;1.178;2023-05-10T09:38:22;5.78;;;0.80;;
26391;SDS011;14572;43.120;1.178;2023-05-10T09:40:53;7.00;;;1.55;;
26391;SDS011;14572;43.120;1.178;2023-05-10T09:43:21;4.72;;;0.90;;
26391;SDS011;14572;43.120;1.178;2023-05-10T09:45:50;3.80;;;0.65;;
26391;SDS011;14572;43.120;1.178;2023-05-10T09:48:18;7.15;;;1.52;;
26391;SDS011;14572;43.120;1.178;2023-05-10T09:50:56;9.73;;;1.23;;
26391;SDS011;14572;43.120;1.178;2023-05-10T09:53:24;6.03;;;1.02;;
26391;SDS011;14572;43.120;1.178;2023-05-10T09:55:51;13.93;;;1.30;;
26391;SDS011;14572;43.120;1.178;2023-05-10T09:58:18;8.10;;;1.00;;
26391;SDS011;14572;43.120;1.178;2023-05-10T10:00:45;12.73;;;1.42;;
26391;SDS011;14572;43.120;1.178;2023-05-10T10:03:18;10.43;;;1.52;;
26391;SDS011;14572;43.120;1.178;2023-05-10T10:05:46;11.15;;;1.35;;
26391;SDS011;14572;43.120;1.178;2023-05-10T10:08:14;9.57;;;1.23;;
26391;SDS011;14572;43.120;1.178;2023-05-10T10:10:42;6.55;;;1.10;;
26391;SDS011;14572;43.120;1.178;2023-05-10T10:13:11;7.15;;;1.00;;
26391;SDS011;14572;43.120;1.178;2023-05-10T10:15:38;9.23;;;1.27;;
26391;SDS011;14572;43.120;1.178;2023-05-10T10:18:05;9.57;;;1.38;;
26391;SDS011;14572;43.120;1.178;2023-05-10T10:20:35;6.32;;;1.27;;
26391;SDS011;14572;43.120;1.178;2023-05-10T10:23:04;8.82;;;1.25;;
26391;SDS011;14572;43.120;1.178;2023-05-10T10:25:31;9.55;;;1.52;;
26391;SDS011;14572;43.120;1.178;2023-05-10T10:28:01;6.72;;;0.95;;
26391;SDS011;14572;43.120;1.178;2023-05-10T10:30:39;7.45;;;0.93;;
26391;SDS011;14572;43.120;1.178;2023-05-10T10:36:17;5.68;;;0.90;;
26391;SDS011;14572;43.120;1.178;2023-05-10T10:38:55;9.90;;;1.48;;
26391;SDS011;14572;43.120;1.178;2023-05-10T10:41:28;7.57;;;0.77;;
26391;SDS011;14572;43.120;1.178;2023-05-10T10:50:02;2.00;;;0.50;;
26391;SDS011;14572;43.120;1.178;2023-05-10T10:52:32;3.97;;;0.60;;
26391;SDS011;14572;43.120;1.178;2023-05-10T10:55:01;3.92;;;0.50;;
26391;SDS011;14572;43.120;1.178;2023-05-10T10:57:35;4.65;;;0.73;;
26391;SDS011;14572;43.120;1.178;2023-05-10T11:00:23;6.65;;;0.77;;
26391;SDS011;14572;43.120;1.178;2023-05-10T11:02:53;6.10;;;1.00;;
26391;SDS011;14572;43.120;1.178;2023-05-10T11:05:27;3.63;;;0.85;;
26391;SDS011;14572;43.120;1.178;2023-05-10T11:08:08;6.18;;;0.75;;
26391;SDS011;14572;43.120;1.178;2023-05-10T11:10:40;6.30;;;0.93;;
26391;SDS011;14572;43.120;1.178;2023-05-10T11:13:17;9.23;;;0.77;;
26391;SDS011;14572;43.120;1.178;2023-05-10T11:15:54;4.38;;;0.80;;
26391;SDS011;14572;43.120;1.178;2023-05-10T11:18:23;5.60;;;1.05;;
26391;SDS011;14572;43.120;1.178;2023-05-10T11:20:51;3.60;;;0.95;;
26391;SDS011;14572;43.120;1.178;2023-05-10T11:23:20;4.18;;;0.88;;
26391;SDS011;14572;43.120;1.178;2023-05-10T11:25:48;2.53;;;0.70;;
26391;SDS011;14572;43.120;1.178;2023-05-10T11:28:16;6.07;;;1.00;;
26391;SDS011;14572;43.120;1.178;2023-05-10T11:30:44;4.88;;;0.73;;
26391;SDS011;14572;43.120;1.178;2023-05-10T11:33:15;4.18;;;0.65;;
26391;SDS011;14572;43.120;1.178;2023-05-10T11:35:43;5.43;;;0.77;;
26391;SDS011;14572;43.120;1.178;2023-05-10T11:38:11;5.05;;;0.70;;
26391;SDS011;14572;43.120;1.178;2023-05-10T11:40:41;3.70;;;1.27;;
26391;SDS011;14572;43.120;1.178;2023-05-10T11:43:09;3.42;;;0.63;;
26391;SDS011;14572;43.120;1.178;2023-05-10T11:45:37;3.60;;;0.68;;
26391;SDS011;14572;43.120;1.178;2023-05-10T11:48:04;3.90;;;0.88;;
26391;SDS011;14572;43.120;1.178;2023-05-10T11:50:32;4.82;;;0.55;;
26391;SDS011;14572;43.120;1.178;2023-05-10T11:52:59;3.80;;;0.95;;
26391;SDS011;14572;43.120;1.178;2023-05-10T11:55:26;5.47;;;0.88;;
26391;SDS011;14572;43.120;1.178;2023-05-10T11:58:00;3.80;;;0.52;;
26391;SDS011;14572;43.120;1.178;2023-05-10T12:00:28;4.25;;;1.13;;
26391;SDS011;14572;43.120;1.178;2023-05-10T12:02:55;3.17;;;0.50;;
26391;SDS011;14572;43.120;1.178;2023-05-10T12:05:22;5.68;;;0.90;;
26391;SDS011;14572;43.120;1.178;2023-05-10T12:07:50;6.63;;;0.93;;
26391;SDS011;14572;43.120;1.178;2023-05-10T12:10:17;7.35;;;0.80;;
26391;SDS011;14572;43.120;1.178;2023-05-10T12:12:52;4.75;;;0.90;;
26391;SDS011;14572;43.120;1.178;2023-05-10T12:15:21;7.43;;;1.17;;
26391;SDS011;14572;43.120;1.178;2023-05-10T12:17:49;5.22;;;0.60;;
26391;SDS011;14572;43.120;1.178;2023-05-10T12:20:17;6.93;;;0.93;;
26391;SDS011;14572;43.120;1.178;2023-05-10T12:22:46;4.70;;;0.60;;
26391;SDS011;14572;43.120;1.178;2023-05-10T12:25:13;7.38;;;1.00;;
26391;SDS011;14572;43.120;1.178;2023-05-10T12:27:47;7.25;;;1.15;;
26391;SDS011;14572;43.120;1.178;2023-05-10T12:30:18;5.20;;;0.95;;
26391;SDS011;14572;43.120;1.178;2023-05-10T12:32:47;4.90;;;1.02;;
26391;SDS011;14572;43.120;1.178;2023-05-10T12:35:15;3.90;;;0.65;;
26391;SDS011;14572;43.120;1.178;2023-05-10T12:37:42;4.70;;;0.93;;
26391;SDS011;14572;43.120;1.178;2023-05-10T12:40:11;4.85;;;0.70;;
26391;SDS011;14572;43.120;1.178;2023-05-10T12:42:38;5.88;;;0.70;;
26391;SDS011;14572;43.120;1.178;2023-05-10T12:45:06;5.72;;;1.00;;
26391;SDS011;14572;43.120;1.178;2023-05-10T12:47:36;5.93;;;0.90;;
26391;SDS011;14572;43.120;1.178;2023-05-10T12:50:04;5.65;;;0.60;;
26391;SDS011;14572;43.120;1.178;2023-05-10T12:52:32;7.88;;;1.88;;
26391;SDS011;14572;43.120;1.178;2023-05-10T12:54:59;4.90;;;0.70;;
26391;SDS011;14572;43.120;1.178;2023-05-10T12:57:26;6.22;;;0.70;;
26391;SDS011;14572;43.120;1.178;2023-05-10T12:59:54;9.48;;;1.35;;
26391;SDS011;14572;43.120;1.178;2023-05-10T13:02:21;5.00;;;0.90;;
26391;SDS011;14572;43.120;1.178;2023-05-10T13:04:51;4.18;;;0.70;;
26391;SDS011;14572;43.120;1.178;2023-05-10T13:07:18;4.75;;;0.88;;
26391;SDS011;14572;43.120;1.178;2023-05-10T13:09:45;5.38;;;1.35;;
26391;SDS011;14572;43.120;1.178;2023-05-10T13:12:12;6.05;;;0.70;;
26391;SDS011;14572;43.120;1.178;2023-05-10T13:14:39;5.18;;;0.93;;
26391;SDS011;14572;43.120;1.178;2023-05-10T13:17:06;3.50;;;0.82;;
26391;SDS011;14572;43.120;1.178;2023-05-10T13:19:34;11.20;;;1.20;;
26391;SDS011;14572;43.120;1.178;2023-05-10T13:22:03;7.57;;;0.75;;
26391;SDS011;14572;43.120;1.178;2023-05-10T13:24:30;6.70;;;0.90;;
26391;SDS011;14572;43.120;1.178;2023-05-10T13:26:58;3.85;;;0.90;;
26391;SDS011;14572;43.120;1.178;2023-05-10T13:29:25;3.35;;;0.95;;
26391;SDS011;14572;43.120;1.178;2023-05-10T13:31:52;8.55;;;2.03;;
26391;SDS011;14572;43.120;1.178;2023-05-10T13:34:19;4.00;;;0.98;;
26391;SDS011;14572;43.120;1.178;2023-05-10T13:36:47;7.07;;;0.90;;
26391;SDS011;14572;43.120;1.178;2023-05-10T13:39:16;6.85;;;1.55;;
26391;SDS011;14572;43.120;1.178;2023-05-10T13:41:43;7.50;;;1.50;;
26391;SDS011;14572;43.120;1.178;2023-05-10T13:44:11;9.60;;;1.20;;
26391;SDS011;14572;43.120;1.178;2023-05-10T13:46:39;7.05;;;0.80;;
26391;SDS011;14572;43.120;1.178;2023-05-10T13:49:15;5.03;;;0.70;;
26391;SDS011;14572;43.120;1.178;2023-05-10T13:51:42;5.13;;;1.10;;
26391;SDS011;14572;43.120;1.178;2023-05-10T13:54:10;10.57;;;1.48;;
26391;SDS011;14572;43.120;1.178;2023-05-10T13:56:38;6.63;;;1.08;;
26391;SDS011;14572;43.120;1.178;2023-05-10T13:59:06;5.45;;;1.17;;
26391;SDS011;14572;43.120;1.178;2023-05-10T14:01:34;4.05;;;1.00;;
26391;SDS011;14572;43.120;1.178;2023-05-10T14:04:01;4.20;;;1.00;;
26391;SDS011;14572;43.120;1.178;2023-05-10T14:06:28;4.82;;;0.98;;
26391;SDS011;14572;43.120;1.178;2023-05-10T14:08:55;5.80;;;1.50;;
26391;SDS011;14572;43.120;1.178;2023-05-10T14:11:23;7.05;;;1.13;;
26391;SDS011;14572;43.120;1.178;2023-05-10T14:13:51;5.90;;;1.15;;
26391;SDS011;14572;43.120;1.178;2023-05-10T14:16:19;9.60;;;1.50;;
26391;SDS011;14572;43.120;1.178;2023-05-10T14:18:46;5.57;;;1.02;;
26391;SDS011;14572;43.120;1.178;2023-05-10T14:21:13;3.95;;;0.90;;
26391;SDS011;14572;43.120;1.178;2023-05-10T14:23:40;7.43;;;1.20;;
26391;SDS011;14572;43.120;1.178;2023-05-10T14:26:07;6.10;;;0.95;;
26391;SDS011;14572;43.120;1.178;2023-05-10T14:28:35;3.40;;;0.90;;
26391;SDS011;14572;43.120;1.178;2023-05-10T14:31:03;6.28;;;0.90;;
26391;SDS011;14572;43.120;1.178;2023-05-10T14:33:31;5.10;;;1.83;;
26391;SDS011;14572;43.120;1.178;2023-05-10T14:35:58;5.72;;;1.00;;
26391;SDS011;14572;43.120;1.178;2023-05-10T14:38:25;2.97;;;0.85;;
26391;SDS011;14572;43.120;1.178;2023-05-10T14:40:53;5.30;;;1.13;;
26391;SDS011;14572;43.120;1.178;2023-05-10T14:43:20;4.68;;;0.80;;
26391;SDS011;14572;43.120;1.178;2023-05-10T14:45:47;4.88;;;0.80;;
26391;SDS011;14572;43.120;1.178;2023-05-10T14:48:16;7.60;;;1.55;;
26391;SDS011;14572;43.120;1.178;2023-05-10T14:50:43;6.57;;;1.00;;
26391;SDS011;14572;43.120;1.178;2023-05-10T14:53:10;5.57;;;0.60;;
26391;SDS011;14572;43.120;1.178;2023-05-10T14:55:37;3.42;;;0.70;;
26391;SDS011;14572;43.120;1.178;2023-05-10T14:58:05;9.65;;;0.82;;
26391;SDS011;14572;43.120;1.178;2023-05-10T15:00:32;7.55;;;0.90;;
26391;SDS011;14572;43.120;1.178;2023-05-10T15:03:00;3.13;;;0.82;;
26391;SDS011;14572;43.120;1.178;2023-05-10T15:05:30;5.50;;;0.50;;